Time;durP1;ratioP1;P1;durP2;ratioP2;P2;SDS_P1;SDS_P2;PMS_P1;PMS_P2;Temp;Humidity;BMP_temperature;BMP_pressure;BME280_temperature;BME280_humidity;BME280_pressure;Samples;Min_cycle;Max_cycle;Signal;HPM_P1;HPM_P2
2023/08/02 00:01:07;;;;;;;3.35;1.15;;;;;;;17.17;63.75;95904.28;4956762;29;20043;-79
2023/08/02 00:03:37;;;;;;;2.88;1.40;;;;;;;17.13;63.49;95908.41;4957382;28;20425;-79
2023/08/02 00:06:05;;;;;;;3.53;1.60;;;;;;;17.11;63.27;95910.50;4956900;29;20070;-79
2023/08/02 00:08:33;;;;;;;1.55;1.25;;;;;;;17.04;63.06;95910.66;4956490;28;20079;-79
2023/08/02 00:11:02;;;;;;;4.30;1.67;;;;;;;17.00;64.16;95911.38;4956397;28;20047;-79
2023/08/02 00:13:30;;;;;;;3.97;1.58;;;;;;;16.95;64.53;95914.72;4956412;29;20520;-79
2023/08/02 00:15:58;;;;;;;1.80;1.60;;;;;;;16.89;64.28;95910.41;4956301;28;20055;-79
2023/08/02 00:18:25;;;;;;;2.78;1.42;;;;;;;16.84;64.14;95908.50;4956117;28;20048;-79
2023/08/02 00:20:54;;;;;;;2.63;1.50;;;;;;;16.78;63.90;95917.31;4956221;28;20051;-79
2023/08/02 00:23:22;;;;;;;1.90;1.27;;;;;;;16.73;63.94;95911.19;4956626;29;20055;-79
2023/08/02 00:25:51;;;;;;;7.47;1.75;;;;;;;16.66;64.37;95913.94;4956504;29;20059;-79
2023/08/02 00:28:18;;;;;;;3.72;1.70;;;;;;;16.55;64.29;95901.63;4955003;28;20106;-79
2023/08/02 00:30:48;;;;;;;2.40;1.45;;;;;;;16.46;64.93;95907.28;4956487;29;20047;-79
2023/08/02 00:33:16;;;;;;;2.85;1.52;;;;;;;16.42;64.85;95902.72;4955772;28;20062;-79
2023/08/02 00:35:44;;;;;;;3.42;1.55;;;;;;;16.38;65.23;95901.59;4956061;28;20597;-79
2023/08/02 00:38:14;;;;;;;1.42;0.93;;;;;;;16.35;65.09;95897.59;4955933;28;20051;-79
2023/08/02 00:40:42;;;;;;;4.70;1.17;;;;;;;16.32;65.46;95892.81;4955856;28;20408;-79
2023/08/02 00:43:10;;;;;;;1.55;1.15;;;;;;;16.28;65.06;95881.94;4956193;28;20082;-79
2023/08/02 00:45:37;;;;;;;3.10;1.50;;;;;;;16.27;65.18;95884.81;4956122;29;20428;-79
2023/08/02 00:48:05;;;;;;;8.82;1.80;;;;;;;16.24;65.57;95882.66;4955654;28;20109;-79
2023/08/02 00:50:36;;;;;;;2.28;1.30;;;;;;;16.22;66.24;95882.06;4955471;28;20079;-79
2023/08/02 00:53:04;;;;;;;3.15;1.63;;;;;;;16.19;66.18;95872.03;4963919;28;20059;-79
2023/08/02 00:55:34;;;;;;;3.05;1.40;;;;;;;16.16;66.00;95873.31;4957949;28;20414;-79
2023/08/02 00:58:02;;;;;;;2.05;1.33;;;;;;;16.12;65.83;95866.13;4955803;29;20051;-79
2023/08/02 01:00:31;;;;;;;3.95;1.60;;;;;;;16.08;65.96;95865.00;4956325;29;20090;-79
2023/08/02 01:02:58;;;;;;;3.28;1.25;;;;;;;16.03;66.04;95858.59;4956981;29;20047;-79
2023/08/02 01:05:32;;;;;;;2.95;1.55;;;;;;;15.99;66.31;95856.66;4955666;28;20420;-79
2023/08/02 01:08:05;;;;;;;4.28;1.38;;;;;;;15.96;66.15;95857.13;4955740;28;20485;-79
2023/08/02 01:10:42;;;;;;;1.90;1.52;;;;;;;15.94;66.28;95854.75;4955335;29;20448;-79
2023/08/02 01:13:15;;;;;;;2.88;1.52;;;;;;;15.91;66.11;95854.41;4954624;29;20062;-80
2023/08/02 01:15:44;;;;;;;2.85;1.45;;;;;;;15.88;66.23;95852.25;4954723;29;20057;-80
2023/08/02 01:18:12;;;;;;;1.60;1.23;;;;;;;15.82;66.26;95844.25;4961162;29;20051;-79
2023/08/02 01:20:42;;;;;;;2.55;1.50;;;;;;;15.78;66.10;95840.47;4960257;28;20047;-79
2023/08/02 01:23:09;;;;;;;3.17;1.40;;;;;;;15.75;66.38;95835.69;4954714;29;20063;-79
2023/08/02 01:25:39;;;;;;;3.35;1.38;;;;;;;15.72;66.72;95843.22;4953731;28;20051;-79
2023/08/02 01:28:14;;;;;;;2.97;1.63;;;;;;;15.67;66.96;95849.16;4955123;29;20501;-79
2023/08/02 01:30:43;;;;;;;2.15;1.50;;;;;;;15.65;67.23;95840.72;4955777;29;20488;-79
2023/08/02 01:33:11;;;;;;;2.90;1.45;;;;;;;15.69;66.96;95843.69;4955420;28;20055;-79
2023/08/02 01:35:40;;;;;;;3.30;1.50;;;;;;;15.69;66.88;95833.16;4955226;29;20063;-79
2023/08/02 01:38:10;;;;;;;6.63;1.55;;;;;;;15.68;66.98;95834.19;4956337;28;20520;-79
2023/08/02 01:40:37;;;;;;;2.13;1.42;;;;;;;15.65;66.86;95823.13;4955349;28;20059;-79
2023/08/02 01:43:05;;;;;;;2.88;1.30;;;;;;;15.60;67.69;95830.09;4955514;28;20564;-79
2023/08/02 01:45:33;;;;;;;4.05;1.42;;;;;;;15.54;67.61;95813.41;4955296;28;20074;-79
2023/08/02 01:48:01;;;;;;;2.72;1.50;;;;;;;15.49;67.58;95820.41;4954889;29;20133;-80
2023/08/02 01:50:29;;;;;;;2.85;1.50;;;;;;;15.43;67.53;95811.59;4954702;28;20529;-79
2023/08/02 01:52:57;;;;;;;2.90;1.40;;;;;;;15.39;67.62;95795.53;4957751;28;20497;-80
2023/08/02 01:55:26;;;;;;;2.75;1.45;;;;;;;15.36;67.64;95803.06;4954831;28;20058;-80
2023/08/02 01:57:53;;;;;;;4.53;1.77;;;;;;;15.32;67.83;95809.81;4954812;29;20051;-80
2023/08/02 02:00:22;;;;;;;2.13;1.40;;;;;;;15.28;67.93;95804.19;4955737;28;20151;-79
2023/08/02 02:02:50;;;;;;;2.22;1.38;;;;;;;15.26;67.94;95801.00;4955066;28;20090;-79
2023/08/02 02:05:18;;;;;;;3.00;1.55;;;;;;;15.23;68.00;95798.84;4954655;28;20058;-79
2023/08/02 02:07:45;;;;;;;2.13;1.23;;;;;;;15.19;68.12;95810.84;4954759;28;20051;-79
2023/08/02 02:10:13;;;;;;;1.85;1.55;;;;;;;15.16;68.17;95798.19;4954577;28;20094;-79
2023/08/02 02:12:42;;;;;;;1.92;1.27;;;;;;;15.12;68.47;95800.44;4954676;28;20130;-79
2023/08/02 02:15:10;;;;;;;5.00;1.50;;;;;;;15.11;68.67;95795.41;4954616;29;20043;-79
2023/08/02 02:17:39;;;;;;;5.25;1.73;;;;;;;15.10;68.74;95804.34;4954952;28;20138;-79
2023/08/02 02:20:08;;;;;;;1.42;1.33;;;;;;;15.09;68.43;95793.03;4954664;28;20047;-79
2023/08/02 02:22:36;;;;;;;2.15;1.40;;;;;;;15.06;68.52;95795.31;4969540;28;20039;-79
2023/08/02 02:25:04;;;;;;;3.33;1.83;;;;;;;15.06;68.76;95806.63;4956838;28;20134;-79
2023/08/02 02:27:32;;;;;;;4.63;1.48;;;;;;;15.04;68.60;95790.28;4954442;28;20051;-79
2023/08/02 02:30:01;;;;;;;3.92;1.48;;;;;;;15.01;69.13;95793.38;4954205;28;20075;-79
2023/08/02 02:32:29;;;;;;;3.13;1.20;;;;;;;15.03;69.79;95786.06;4954097;28;20081;-79
2023/08/02 02:34:56;;;;;;;5.15;1.95;;;;;;;15.06;69.27;95795.31;4954101;28;20075;-79
2023/08/02 02:37:24;;;;;;;2.90;1.58;;;;;;;15.06;69.11;95788.22;4954456;28;20126;-79
2023/08/02 02:39:52;;;;;;;3.63;1.27;;;;;;;15.07;68.94;95791.69;4954456;29;20051;-79
2023/08/02 02:42:19;;;;;;;3.05;1.70;;;;;;;15.06;69.77;95784.81;4954394;29;20114;-79
2023/08/02 02:44:47;;;;;;;1.38;1.10;;;;;;;15.07;69.34;95787.22;4954912;29;20047;-79
2023/08/02 02:47:16;;;;;;;3.30;1.38;;;;;;;15.04;69.32;95782.41;4954579;29;20055;-79
2023/08/02 02:49:44;;;;;;;1.75;1.20;;;;;;;14.99;69.29;95771.81;4954857;29;20110;-79
2023/08/02 02:52:11;;;;;;;3.03;1.60;;;;;;;14.95;69.38;95760.16;4955527;28;20047;-79
2023/08/02 02:54:39;;;;;;;4.68;1.10;;;;;;;14.90;69.46;95754.81;4957822;28;20051;-79
2023/08/02 02:57:07;;;;;;;3.20;1.50;;;;;;;14.87;69.71;95761.31;4957984;28;20110;-79
2023/08/02 02:59:35;;;;;;;2.00;1.50;;;;;;;14.83;69.66;95763.59;4957604;29;20480;-79
2023/08/02 03:02:03;;;;;;;3.50;1.58;;;;;;;14.77;69.83;95756.63;4957265;28;20569;-79
2023/08/02 03:04:32;;;;;;;3.72;1.70;;;;;;;14.73;70.12;95750.22;4957762;28;20079;-79
2023/08/02 03:06:59;;;;;;;7.50;1.77;;;;;;;14.68;70.11;95739.63;4957601;29;20083;-80
2023/08/02 03:09:27;;;;;;;3.13;1.38;;;;;;;14.65;70.34;95744.53;4957602;28;20051;-79
2023/08/02 03:11:54;;;;;;;2.55;1.38;;;;;;;14.60;70.25;95745.22;4957856;29;20064;-79
2023/08/02 03:14:23;;;;;;;4.65;1.42;;;;;;;14.55;70.34;95753.75;4958502;28;20058;-79
2023/08/02 03:16:51;;;;;;;3.42;1.50;;;;;;;14.50;70.65;95729.22;4957958;29;20138;-81
2023/08/02 03:19:19;;;;;;;3.47;1.90;;;;;;;14.44;71.00;95736.16;4958158;29;20051;-79
2023/08/02 03:21:48;;;;;;;3.17;1.83;;;;;;;14.38;71.20;95732.59;4958266;29;20077;-80
2023/08/02 03:24:16;;;;;;;1.83;1.50;;;;;;;14.35;71.38;95721.78;4957876;28;20402;-80
2023/08/02 03:26:44;;;;;;;4.60;1.67;;;;;;;14.34;71.33;95721.00;4958070;28;20043;-79
2023/08/02 03:29:12;;;;;;;5.95;1.48;;;;;;;14.35;71.63;95719.94;4958700;28;20079;-79
2023/08/02 03:31:40;;;;;;;3.10;1.50;;;;;;;14.34;71.58;95715.75;4958371;28;20051;-81
2023/08/02 03:34:14;;;;;;;3.08;1.52;;;;;;;14.37;73.29;95722.34;4962163;28;20126;-80
2023/08/02 03:36:43;;;;;;;5.30;1.40;;;;;;;14.43;73.12;95724.88;4963492;29;20078;-80
2023/08/02 03:39:12;;;;;;;3.92;1.38;;;;;;;14.52;72.26;95722.72;4959480;28;20057;-81
2023/08/02 03:41:40;;;;;;;3.03;1.48;;;;;;;14.59;72.46;95723.41;4959316;29;20043;-81
2023/08/02 03:44:08;;;;;;;2.85;1.73;;;;;;;14.70;73.99;95724.44;4962954;29;20416;-80
2023/08/02 03:46:37;;;;;;;4.38;1.48;;;;;;;14.74;71.79;95722.97;4958872;29;20040;-81
2023/08/02 03:49:05;;;;;;;1.90;1.20;;;;;;;14.80;72.51;95718.59;4959568;28;20072;-80
2023/08/02 03:51:34;;;;;;;3.08;1.67;;;;;;;14.84;71.87;95712.66;4959427;29;20075;-80
2023/08/02 03:54:03;;;;;;;2.85;1.65;;;;;;;14.87;71.01;95702.72;4959076;29;20131;-81
2023/08/02 03:56:34;;;;;;;2.03;1.27;;;;;;;14.89;71.23;95701.50;4962350;29;20111;-81
2023/08/02 03:59:02;;;;;;;1.90;1.42;;;;;;;14.93;71.30;95686.84;4960455;28;20082;-81
2023/08/02 04:01:30;;;;;;;4.35;1.30;;;;;;;14.98;70.78;95684.34;4957643;28;20047;-80
2023/08/02 04:03:58;;;;;;;2.30;1.38;;;;;;;15.03;70.57;95681.03;4956586;28;20043;-80
2023/08/02 04:06:26;;;;;;;2.17;1.50;;;;;;;15.05;72.01;95673.72;4956583;28;20501;-81
2023/08/02 04:08:53;;;;;;;2.10;1.38;;;;;;;15.10;72.16;95675.63;4958921;29;20094;-80
2023/08/02 04:11:21;;;;;;;3.50;1.30;;;;;;;15.13;70.82;95670.72;4964091;29;20485;-80
2023/08/02 04:13:51;;;;;;;1.88;1.60;;;;;;;15.08;70.56;95672.44;4962830;29;20106;-80
2023/08/02 04:16:19;;;;;;;3.38;1.48;;;;;;;15.09;71.29;95674.06;4957655;28;20417;-80
2023/08/02 04:18:47;;;;;;;2.03;1.63;;;;;;;15.10;70.57;95667.75;4958364;29;20133;-80
2023/08/02 04:21:18;;;;;;;3.85;1.58;;;;;;;15.10;70.63;95663.28;4957035;29;20047;-81
2023/08/02 04:23:47;;;;;;;1.58;1.42;;;;;;;15.13;72.13;95665.47;4956750;28;20054;-80
2023/08/02 04:26:15;;;;;;;3.72;1.33;;;;;;;15.14;70.91;95661.81;4956608;28;20051;-80
2023/08/02 04:28:43;;;;;;;1.85;1.50;;;;;;;15.14;70.51;95659.19;4956188;28;20047;-80
2023/08/02 04:31:12;;;;;;;3.03;1.50;;;;;;;15.12;70.41;95655.97;4962418;28;20047;-80
2023/08/02 04:33:40;;;;;;;4.55;1.65;;;;;;;15.09;70.13;95651.22;4971291;28;20051;-80
2023/08/02 04:36:08;;;;;;;2.50;1.45;;;;;;;15.07;70.20;95655.91;4956809;28;20058;-80
2023/08/02 04:38:36;;;;;;;1.98;1.60;;;;;;;15.07;70.04;95650.66;4958571;28;20052;-79
2023/08/02 04:41:04;;;;;;;4.47;1.42;;;;;;;15.07;70.19;95649.84;4957515;29;20058;-80
2023/08/02 04:43:32;;;;;;;2.38;2.17;;;;;;;15.08;70.93;95646.97;4956842;28;20059;-80
2023/08/02 04:46:00;;;;;;;3.83;1.73;;;;;;;15.10;70.26;95631.00;4956179;28;20050;-80
2023/08/02 04:48:30;;;;;;;2.33;2.13;;;;;;;15.11;70.19;95630.75;4956448;29;20077;-80
2023/08/02 04:50:58;;;;;;;3.42;1.80;;;;;;;15.13;70.01;95620.81;4956446;29;20421;-80
2023/08/02 04:53:26;;;;;;;1.80;1.70;;;;;;;15.15;69.66;95621.38;4956129;28;20059;-79
2023/08/02 04:55:53;;;;;;;1.92;1.35;;;;;;;15.16;69.78;95625.59;4955861;29;20102;-80
2023/08/02 04:58:23;;;;;;;3.78;1.83;;;;;;;15.17;69.74;95619.28;4956620;29;20051;-80
2023/08/02 05:00:51;;;;;;;3.22;2.10;;;;;;;15.15;69.83;95600.38;4955939;29;20126;-80
2023/08/02 05:03:19;;;;;;;2.45;2.15;;;;;;;15.17;70.11;95598.28;4956625;29;20487;-80
2023/08/02 05:05:49;;;;;;;6.18;2.28;;;;;;;15.18;70.20;95594.63;4955679;28;20058;-80
2023/08/02 05:08:17;;;;;;;7.72;4.40;;;;;;;15.21;70.29;95591.53;4956013;29;20114;-80
2023/08/02 05:10:51;;;;;;;3.97;2.50;;;;;;;15.23;70.26;95584.22;4960479;29;20051;-81
2023/08/02 05:13:24;;;;;;;3.60;2.85;;;;;;;15.27;70.29;95581.13;4962246;29;20051;-80
2023/08/02 05:15:53;;;;;;;4.05;2.45;;;;;;;15.29;70.02;95579.06;4961451;28;20137;-80
2023/08/02 05:18:22;;;;;;;3.70;2.50;;;;;;;15.30;70.15;95581.44;4959109;28;20054;-81
2023/08/02 05:20:52;;;;;;;7.32;3.05;;;;;;;15.34;70.28;95576.53;4959717;28;20080;-80
2023/08/02 05:23:20;;;;;;;2.83;2.35;;;;;;;15.37;70.21;95576.03;4957163;29;20055;-80
2023/08/02 05:25:48;;;;;;;3.45;2.58;;;;;;;15.39;70.27;95580.03;4961610;28;20405;-80
2023/08/02 05:28:16;;;;;;;4.40;2.58;;;;;;;15.43;70.23;95582.97;4959767;28;20055;-80
2023/08/02 05:30:43;;;;;;;8.93;3.05;;;;;;;15.45;69.95;95583.53;4960110;28;20047;-82
2023/08/02 05:33:11;;;;;;;3.60;2.40;;;;;;;15.49;70.17;95583.88;4970554;28;20051;-82
2023/08/02 05:35:40;;;;;;;4.80;3.05;;;;;;;15.54;70.10;95587.38;4970225;28;20046;-81
2023/08/02 05:38:12;;;;;;;3.22;2.35;;;;;;;15.58;69.95;95585.84;4963350;28;20055;-80
2023/08/02 05:40:40;;;;;;;3.35;2.30;;;;;;;15.62;69.72;95589.59;4970371;28;20157;-79
2023/08/02 05:43:08;;;;;;;3.33;2.70;;;;;;;15.72;73.59;95572.44;4966876;29;20043;-80
2023/08/02 05:45:36;;;;;;;4.28;2.70;;;;;;;15.79;72.32;95583.59;4957684;28;20047;-80
2023/08/02 05:48:04;;;;;;;4.57;2.33;;;;;;;15.85;70.68;95578.19;4956287;28;20051;-80
2023/08/02 05:50:35;;;;;;;5.50;2.38;;;;;;;15.91;70.47;95586.94;4958352;29;20134;-80
2023/08/02 05:53:16;;;;;;;3.67;2.35;;;;;;;15.97;70.84;95588.59;4965472;29;20043;-80
2023/08/02 05:56:06;;;;;;;3.65;2.40;;;;;;;16.05;71.44;95585.56;4964664;29;20051;-80
2023/08/02 06:05:32;;;;;;;3.78;2.17;;;;;;;16.19;71.67;95579.97;4975442;28;20058;-81
2023/08/02 06:12:36;;;;;;;4.47;2.70;;;;;;;16.24;72.86;95586.09;4916011;29;20124;-82
2023/08/02 06:23:24;;;;;;;5.93;3.08;;;;;;;16.28;74.40;95592.47;5362741;23;20041;-82
2023/08/02 06:50:19;;;;;;;9.45;3.72;;;;;;;16.41;74.13;95569.47;5950342;23;21118;-81
2023/08/02 06:52:53;;;;;;;7.32;4.35;;;;;;;16.38;74.23;95565.50;5016922;28;20050;-81
2023/08/02 06:55:29;;;;;;;6.70;3.72;;;;;;;16.36;73.76;95564.94;4999576;28;20053;-82
2023/08/02 07:02:46;;;;;;;8.85;3.80;;;;;;;16.40;76.10;95552.91;4970282;28;20070;-81
2023/08/02 07:16:13;;;;;;;5.00;4.00;;;;;;;16.39;75.42;95522.34;5499794;23;20531;-79
2023/08/02 07:18:41;;;;;;;4.70;4.20;;;;;;;16.36;75.86;95514.94;4998833;28;20046;-79
2023/08/02 07:21:10;;;;;;;5.95;4.80;;;;;;;16.35;77.19;95507.28;4998785;28;20181;-78
2023/08/02 07:23:42;;;;;;;9.13;4.63;;;;;;;16.34;77.20;95506.50;5000923;28;20074;-79
2023/08/02 07:26:10;;;;;;;5.20;4.10;;;;;;;16.35;77.04;95502.81;5000125;28;20234;-80
2023/08/02 07:28:38;;;;;;;7.65;4.47;;;;;;;16.37;77.25;95495.47;4997749;28;20138;-79
2023/08/02 07:31:08;;;;;;;4.82;3.97;;;;;;;16.36;77.83;95493.88;5001541;28;20050;-79
2023/08/02 07:33:37;;;;;;;6.63;4.03;;;;;;;16.37;77.51;95495.47;5001820;28;20057;-79
2023/08/02 07:36:05;;;;;;;5.80;4.65;;;;;;;16.39;78.60;95496.03;5007302;28;20043;-79
2023/08/02 07:38:33;;;;;;;5.20;4.40;;;;;;;16.43;79.60;95489.22;5010824;28;20058;-79
2023/08/02 07:41:04;;;;;;;6.57;4.75;;;;;;;16.46;78.95;95485.31;4996249;28;20078;-78
2023/08/02 07:43:31;;;;;;;6.32;4.85;;;;;;;16.44;78.69;95488.19;4992330;28;20042;-78
2023/08/02 07:45:59;;;;;;;7.00;4.82;;;;;;;16.46;78.36;95478.22;4980275;28;20050;-78
2023/08/02 07:48:27;;;;;;;5.78;4.90;;;;;;;16.45;78.26;95486.38;4975634;28;20541;-78
2023/08/02 07:50:56;;;;;;;6.82;5.15;;;;;;;16.40;78.24;95478.41;4975709;28;20059;-78
2023/08/02 07:53:23;;;;;;;6.07;5.10;;;;;;;16.41;79.05;95482.63;4988564;28;20092;-77
2023/08/02 07:56:00;;;;;;;8.55;5.43;;;;;;;16.45;81.15;95476.63;4993755;28;20054;-77
2023/08/02 07:58:28;;;;;;;7.57;5.28;;;;;;;16.48;79.82;95480.59;4994725;28;20133;-77
2023/08/02 08:00:55;;;;;;;5.80;4.68;;;;;;;16.51;79.63;95469.59;4976080;28;20105;-78
2023/08/02 08:03:23;;;;;;;6.90;4.95;;;;;;;16.58;80.49;95479.94;4975224;28;20125;-78
2023/08/02 08:05:50;;;;;;;9.30;5.07;;;;;;;16.62;80.15;95465.22;4988299;28;20082;-78
2023/08/02 08:08:19;;;;;;;5.60;5.03;;;;;;;16.68;80.42;95464.22;4994585;28;20050;-78
2023/08/02 08:10:51;;;;;;;7.85;5.00;;;;;;;16.72;80.02;95465.31;4975507;28;20564;-78
2023/08/02 08:13:18;;;;;;;8.53;5.27;;;;;;;16.76;79.94;95468.25;4987552;28;20042;-78
2023/08/02 08:15:47;;;;;;;7.35;5.22;;;;;;;16.80;79.96;95461.47;4989270;28;20093;-78
2023/08/02 08:18:15;;;;;;;6.50;4.80;;;;;;;16.83;79.17;95453.88;4975045;28;20082;-78
2023/08/02 08:20:43;;;;;;;5.72;4.07;;;;;;;16.83;79.59;95445.97;4974902;28;20082;-78
2023/08/02 08:23:10;;;;;;;6.05;4.95;;;;;;;16.86;80.79;95449.97;4974840;28;20153;-78
2023/08/02 08:25:39;;;;;;;5.93;4.45;;;;;;;16.89;80.49;95452.09;4978190;28;20051;-78
2023/08/02 08:28:07;;;;;;;6.03;4.80;;;;;;;16.91;80.28;95443.94;4974555;28;20109;-78
2023/08/02 08:30:35;;;;;;;5.97;4.47;;;;;;;16.87;79.53;95436.53;4978174;28;20066;-78
2023/08/02 08:33:02;;;;;;;5.38;4.43;;;;;;;16.87;79.85;95436.53;4992146;28;20559;-78
2023/08/02 08:35:30;;;;;;;5.72;4.28;;;;;;;16.93;80.36;95433.94;4994446;28;20054;-78
2023/08/02 08:37:58;;;;;;;7.15;4.93;;;;;;;16.96;81.00;95431.59;4994137;28;20238;-78
2023/08/02 08:40:25;;;;;;;5.70;4.68;;;;;;;17.01;81.15;95420.31;4979376;28;20138;-78
2023/08/02 08:42:56;;;;;;;7.07;4.93;;;;;;;17.03;80.41;95418.22;4975901;28;20468;-78
2023/08/02 08:45:25;;;;;;;6.45;4.40;;;;;;;17.05;81.04;95405.59;4985412;28;20058;-79
2023/08/02 08:47:53;;;;;;;7.57;4.78;;;;;;;17.07;80.95;95420.09;4975503;28;20070;-79
2023/08/02 08:50:22;;;;;;;5.55;4.15;;;;;;;17.10;80.99;95413.56;4973929;28;20051;-77
2023/08/02 08:52:51;;;;;;;4.65;3.88;;;;;;;17.10;79.89;95416.19;4979837;28;20070;-78
2023/08/02 08:55:19;;;;;;;4.45;3.70;;;;;;;17.10;79.75;95418.81;4982520;28;20424;-79
2023/08/02 08:57:49;;;;;;;5.15;3.75;;;;;;;17.13;80.30;95413.03;4975206;28;20051;-79
2023/08/02 09:00:19;;;;;;;6.43;3.92;;;;;;;17.20;80.74;95397.78;4975675;28;20055;-79
2023/08/02 09:02:47;;;;;;;4.38;3.03;;;;;;;17.22;79.95;95398.34;4991106;28;20050;-78
2023/08/02 09:05:15;;;;;;;3.40;3.10;;;;;;;17.24;80.70;95404.16;4993398;28;20060;-78
2023/08/02 09:07:43;;;;;;;5.00;3.13;;;;;;;17.24;80.09;95393.63;4993526;28;20050;-77
2023/08/02 09:10:11;;;;;;;4.05;3.30;;;;;;;17.25;80.35;95395.22;4991955;28;20077;-78
2023/08/02 09:12:45;;;;;;;3.78;2.85;;;;;;;17.27;80.88;95390.50;4993013;28;20053;-79
2023/08/02 09:15:14;;;;;;;4.07;2.90;;;;;;;17.30;81.02;95389.97;4991378;28;20050;-79
2023/08/02 09:17:49;;;;;;;6.03;3.28;;;;;;;17.34;81.16;95387.63;4998181;28;20058;-80
2023/08/02 09:20:18;;;;;;;6.03;2.72;;;;;;;17.38;80.05;95387.91;4981281;28;20065;-79
2023/08/02 09:22:47;;;;;;;3.58;3.20;;;;;;;17.38;80.73;95375.53;4979780;28;20059;-80
2023/08/02 09:25:23;;;;;;;5.85;3.00;;;;;;;17.40;82.14;95375.25;4978957;28;20066;-79
2023/08/02 09:27:52;;;;;;;4.53;3.50;;;;;;;17.44;80.77;95386.88;4993830;28;20046;-79
2023/08/02 09:30:24;;;;;;;5.38;3.65;;;;;;;17.47;81.13;95381.09;4993926;28;20054;-79
2023/08/02 09:33:04;;;;;;;3.65;2.63;;;;;;;17.48;80.98;95377.44;4986747;28;20046;-80
2023/08/02 09:35:36;;;;;;;2.65;2.45;;;;;;;17.47;80.23;95373.19;5001344;28;20484;-79
2023/08/02 09:38:08;;;;;;;;;;;;;;;17.49;80.71;95373.72;4994429;28;20080;-79
2023/08/02 09:40:38;;;;;;;3.10;2.30;;;;;;;17.48;80.29;95378.22;4993386;28;19925;-79
2023/08/02 09:43:26;;;;;;;2.50;2.30;;;;;;;17.49;80.34;95363.19;4991184;28;20054;-79
2023/08/02 09:45:54;;;;;;;4.03;3.20;;;;;;;17.48;80.39;95361.59;4976333;28;20046;-78
2023/08/02 09:48:35;;;;;;;3.85;2.67;;;;;;;17.51;82.35;95363.72;4973622;28;20047;-79
2023/08/02 09:51:03;;;;;;;3.63;3.00;;;;;;;17.54;81.11;95360.59;4973447;28;20055;-80
2023/08/02 09:53:32;;;;;;;4.18;3.13;;;;;;;17.57;81.19;95354.78;4973358;28;20078;-78
2023/08/02 09:56:01;;;;;;;3.75;2.75;;;;;;;17.59;82.29;95355.34;4975689;28;20058;-79
2023/08/02 09:58:31;;;;;;;4.30;2.97;;;;;;;17.61;82.00;95342.69;4996830;28;20050;-79
2023/08/02 10:01:05;;;;;;;5.68;3.05;;;;;;;17.65;81.81;95341.13;5013723;28;20046;-80
2023/08/02 10:03:40;;;;;;;3.47;2.83;;;;;;;17.70;82.91;95338.50;5003655;28;20057;-80
2023/08/02 10:09:29;;;;;;;5.68;3.60;;;;;;;17.80;83.35;95342.22;4984839;28;20066;-80
2023/08/02 10:12:01;;;;;;;2.72;2.33;;;;;;;17.81;82.41;95333.28;4984770;28;20059;-80
2023/08/02 10:14:31;;;;;;;3.17;2.80;;;;;;;17.81;82.67;95322.72;4986515;28;20050;-79
2023/08/02 10:17:02;;;;;;;3.33;2.92;;;;;;;17.84;82.50;95322.22;4994044;28;20428;-80
2023/08/02 10:19:34;;;;;;;5.20;3.35;;;;;;;17.89;83.59;95319.63;4988447;28;20064;-80
2023/08/02 11:02:45;;;;;;;4.95;3.70;;;;;;;18.48;80.84;95253.19;5187866;23;20057;-77
2023/08/02 11:05:14;;;;;;;4.45;3.90;;;;;;;18.49;80.76;95256.63;5009946;28;20034;-77
2023/08/02 11:07:42;;;;;;;5.03;3.95;;;;;;;18.50;81.41;95256.38;4999341;28;20086;-77
2023/08/02 11:10:10;;;;;;;6.50;4.03;;;;;;;18.50;81.05;95260.88;4977980;28;20085;-78
2023/08/02 11:12:37;;;;;;;4.88;3.97;;;;;;;18.49;81.04;95249.50;4973998;28;20059;-77
2023/08/02 11:15:15;;;;;;;6.47;4.57;;;;;;;18.49;81.89;95246.06;4976151;28;20047;-77
2023/08/02 11:17:45;;;;;;;6.25;4.40;;;;;;;18.52;81.68;95248.19;4977381;28;20051;-79
2023/08/02 11:20:24;;;;;;;5.82;4.30;;;;;;;18.53;82.08;95247.91;4985854;28;20050;-78
2023/08/02 11:22:52;;;;;;;6.35;4.03;;;;;;;18.55;81.60;95252.94;4995677;28;20149;-78
2023/08/02 11:25:20;;;;;;;5.50;4.20;;;;;;;18.56;81.50;95245.78;4976745;28;20082;-77
2023/08/02 11:28:03;;;;;;;5.13;4.05;;;;;;;18.60;81.77;95247.63;4984839;28;20082;-77
2023/08/02 11:30:30;;;;;;;5.15;4.28;;;;;;;18.63;80.96;95238.38;4986331;28;20050;-77
2023/08/02 11:32:59;;;;;;;6.88;4.57;;;;;;;18.65;81.75;95237.09;4984215;28;20054;-78
2023/08/02 11:35:27;;;;;;;7.38;5.07;;;;;;;18.67;80.86;95223.59;4995328;28;20488;-78
2023/08/02 11:37:55;;;;;;;7.22;4.78;;;;;;;18.65;81.08;95229.16;4986858;28;20109;-78
2023/08/02 11:40:23;;;;;;;5.25;4.50;;;;;;;18.65;81.09;95225.72;5002025;23;20500;-84
2023/08/02 11:42:54;;;;;;;7.55;5.35;;;;;;;18.69;81.66;95229.41;4986630;28;20089;-83
2023/08/02 11:45:29;;;;;;;8.05;4.82;;;;;;;18.80;81.22;95231.00;4988730;28;20046;-88
2023/08/02 11:47:57;;;;;;;6.10;4.43;;;;;;;18.87;80.67;95213.03;4988768;28;20563;-83
2023/08/02 11:50:39;;;;;;;7.07;4.28;;;;;;;18.94;79.85;95223.34;4988776;28;20053;-81
2023/08/02 11:53:09;;;;;;;6.43;4.45;;;;;;;18.94;80.31;95226.75;4986588;28;20050;-84
2023/08/02 11:55:41;;;;;;;4.80;3.88;;;;;;;18.96;80.96;95217.75;4989951;28;20058;-90
2023/08/02 11:58:10;;;;;;;7.97;4.55;;;;;;;18.97;81.73;95206.16;4985246;28;20074;-82
2023/08/02 12:00:38;;;;;;;6.40;4.30;;;;;;;18.96;81.88;95199.25;4984030;28;20054;-84
2023/08/02 12:03:11;;;;;;;5.63;4.32;;;;;;;18.99;82.08;95188.16;4984315;28;20058;-83
2023/08/02 12:05:43;;;;;;;4.82;3.83;;;;;;;19.04;82.49;95190.78;4984052;28;20051;-90
2023/08/02 12:08:13;;;;;;;4.38;3.97;;;;;;;19.08;81.90;95191.84;4985862;28;20050;-85
2023/08/02 12:10:42;;;;;;;5.70;4.25;;;;;;;19.10;82.73;95179.13;4988019;28;20047;-85
2023/08/02 12:13:12;;;;;;;5.90;4.40;;;;;;;19.13;82.75;95163.53;4986719;28;20058;-85
2023/08/02 12:15:40;;;;;;;5.47;4.15;;;;;;;19.24;82.07;95156.38;4986034;28;20107;-84
2023/08/02 12:18:08;;;;;;;5.78;4.10;;;;;;;19.37;81.65;95148.88;4985359;28;20114;-84
2023/08/02 12:20:37;;;;;;;5.88;4.65;;;;;;;19.53;82.00;95145.09;4983562;28;20583;-86
2023/08/02 12:23:07;;;;;;;3.90;3.53;;;;;;;19.69;81.53;95135.22;4981901;28;20062;-81
2023/08/02 12:25:44;;;;;;;4.78;4.10;;;;;;;19.87;81.76;95133.78;4982419;28;20501;-86
2023/08/02 12:28:14;;;;;;;5.28;3.75;;;;;;;20.03;80.87;95126.50;4985936;28;20050;-85
2023/08/02 12:31:03;;;;;;;4.05;3.67;;;;;;;20.17;80.50;95122.94;4987378;28;20051;-88
2023/08/02 12:33:32;;;;;;;4.82;3.83;;;;;;;20.31;80.44;95122.28;4981367;28;20059;-84
2023/08/02 12:36:00;;;;;;;5.47;4.28;;;;;;;20.46;79.96;95114.19;4988880;28;20047;-87
2023/08/02 12:38:37;;;;;;;5.97;4.20;;;;;;;20.62;80.31;95111.41;4987275;28;20073;-88
2023/08/02 12:41:07;;;;;;;4.22;3.83;;;;;;;20.75;80.08;95108.09;4970468;28;20051;-86
2023/08/02 12:43:35;;;;;;;4.80;3.97;;;;;;;20.82;79.60;95111.22;4974740;28;20058;-88
2023/08/02 12:46:03;;;;;;;4.25;3.85;;;;;;;20.86;79.28;95101.63;4987859;28;20528;-86
2023/08/02 12:48:32;;;;;;;4.13;3.47;;;;;;;20.87;79.82;95097.88;4987939;28;20563;-84
2023/08/02 12:51:00;;;;;;;6.47;4.05;;;;;;;21.00;79.81;95077.84;4982717;28;20077;-81
2023/08/02 12:53:27;;;;;;;6.63;4.10;;;;;;;21.09;79.38;95078.78;4981680;28;20069;-82
2023/08/02 12:55:57;;;;;;;5.72;4.15;;;;;;;21.20;79.12;95074.13;4981377;28;20050;-84
2023/08/02 12:58:24;;;;;;;4.28;3.88;;;;;;;21.27;78.71;95074.56;4982463;28;20066;-84
2023/08/02 13:00:53;;;;;;;7.05;3.92;;;;;;;21.27;77.50;95069.25;4986599;28;20101;-90
2023/08/02 13:03:21;;;;;;;3.53;3.22;;;;;;;21.30;78.12;95052.78;4986596;28;20075;-82
2023/08/02 13:05:52;;;;;;;4.78;3.50;;;;;;;21.37;77.78;95061.16;4987202;28;20046;-92
2023/08/02 13:08:20;;;;;;;4.20;3.50;;;;;;;21.48;76.97;95053.09;4986685;28;20115;-87
2023/08/02 13:10:48;;;;;;;3.83;3.50;;;;;;;21.50;77.36;95058.91;4987496;28;20047;-89
2023/08/02 13:13:17;;;;;;;3.58;3.17;;;;;;;21.48;77.14;95059.19;4988742;28;20059;-89
2023/08/02 13:15:45;;;;;;;3.83;3.42;;;;;;;21.49;77.35;95047.47;4988333;28;20050;-88
2023/08/02 13:18:13;;;;;;;3.65;3.17;;;;;;;21.55;76.47;95048.97;4990641;28;20057;-89
2023/08/02 13:20:43;;;;;;;4.50;3.20;;;;;;;21.65;76.45;95047.28;4989223;28;20066;-87
2023/08/02 13:23:12;;;;;;;4.85;3.15;;;;;;;21.80;76.45;95060.28;4988220;28;20142;-88
2023/08/02 13:25:43;;;;;;;4.72;3.55;;;;;;;21.91;76.13;95060.88;4987063;28;20051;-88
2023/08/02 13:28:13;;;;;;;3.13;2.83;;;;;;;22.00;76.13;95059.16;4986409;28;20054;-87